ADDS METAR Data INFO
IDs: Format: Raw Decoded Include TAF

Data at: 1557 UTC 12 Dec 2017

KCEC 121456Z AUTO 11008KT 10SM CLR 08/M01 A3036 RMK AO2 SLP281 T00781011 55000
KCEC 121356Z AUTO 11007KT 10SM CLR 08/M01 A3035 RMK AO2 SLP277 T00831011
KCEC 121256Z AUTO 10007KT 10SM CLR 08/M01 A3036 RMK AO2 SLP281 T00781011
KCEC 121156Z AUTO 09006KT 10SM CLR 08/M01 A3036 RMK AO2 SLP282 T00831011 10094 20056 58002
KCEC 121056Z AUTO 07006KT 10SM CLR 08/M01 A3036 RMK AO2 SLP283 T00831006
KCEC 120956Z AUTO 02005KT 10SM BKN090 07/02 A3037 RMK AO2 SLP285 T00720022
KCEC 120856Z AUTO 00000KT 9SM OVC095 07/01 A3037 RMK AO2 SLP283 T00720006 53003
KCEC 120756Z AUTO 10007KT 10SM CLR 08/01 A3035 RMK AO2 SLP276 T00830011 402000050
KCEC 120656Z AUTO 10006KT 10SM CLR 09/02 A3035 RMK AO2 SLP279 T00940017
KCEC 120556Z AUTO 04004KT 10SM CLR 09/04 A3036 RMK AO2 SLP280 T00890039 10133 20056 53012
KCEC 120456Z AUTO 09003KT 10SM CLR 09/03 A3034 RMK AO2 SLP275 T00890028
KCEC 120356Z AUTO 15004KT 10SM CLR 10/03 A3033 RMK AO2 SLP272 T01000033
KCEC 120256Z AUTO 10008KT 10SM CLR 12/04 A3032 RMK AO2 SLP269 T01220039 51003
KCEC 120156Z AUTO 09006KT 10SM CLR 12/04 A3032 RMK AO2 SLP269 T01220044
KCEC 120056Z AUTO 02003KT 3SM HZ CLR 11/07 A3032 RMK AO2 SLP269 T01060067
KCEC 120046Z AUTO 01003KT 1 3/4SM HZ CLR 10/07 A3032 RMK AO2 T01000067
KCEC 120011Z AUTO 03003KT 4SM HZ CLR 13/08 A3031 RMK AO2 T01280083
KCEC 120004Z AUTO 00000KT 2 1/2SM HZ CLR 12/08 A3031 RMK AO2 T01220078
KCEC 112356Z AUTO 00000KT 3SM HZ CLR 12/08 A3031 RMK AO2 SLP266 T01220078 10200 20122 51008
KCEC 112352Z AUTO 00000KT 3SM HZ CLR 13/08 A3031 RMK AO2
KCEC 112343Z AUTO 00000KT 2 1/2SM HZ CLR 13/08 A3031 RMK AO2 T01330083
KCEC 112256Z AUTO 00000KT 8SM BKN095 15/08 A3031 RMK AO2 SLP263 T01500083
KCEC 112156Z AUTO 22004KT 10SM CLR 19/M01 A3029 RMK AO2 SLP258 T01891006
KCEC 112056Z AUTO 20006KT 10SM CLR 20/M01 A3029 RMK AO2 SLP257 T02001011 50000
KCEC 111956Z AUTO 11006KT 10SM CLR 19/M01 A3030 RMK AO2 SLP263 T01891006
KCEC 111856Z AUTO 12005KT 10SM CLR 16/01 A3032 RMK AO2 SLP266 T01560006
KCEC 111756Z AUTO 09005KT 10SM CLR 13/M01 A3029 RMK AO2 SLP258 T01331006 10133 20050 53012
KCEC 111656Z AUTO 00000KT 10SM CLR 11/M01 A3028 RMK AO2 SLP253 T01061006
KCEC 111556Z AUTO 10005KT 10SM CLR 08/M02 A3026 RMK AO2 SLP246 T00781017
KCEC 111456Z AUTO 10008KT 10SM CLR 08/M02 A3026 RMK AO2 SLP246 T00781017 53002
KCEC 111356Z AUTO 10008KT 10SM CLR 09/M02 A3025 RMK AO2 SLP246 T00941017
KCEC 111256Z AUTO 09007KT 10SM CLR 10/M02 A3024 RMK AO2 SLP241 T01001017
KCEC 111156Z AUTO 10006KT 10SM CLR 09/M01 A3025 RMK AO2 SLP244 T00891011 10100 20056 50007
KCEC 111056Z AUTO 10007KT 10SM CLR 08/M01 A3026 RMK AO2 SLP247 T00831006
KCEC 110956Z AUTO 09004KT 10SM CLR 06/00 A3024 RMK AO2 SLP242 T00610000
KCEC 110856Z AUTO 09008KT 10SM CLR 10/00 A3023 RMK AO2 SLP237 T01000000 51002
KCEC 110756Z AUTO 08007KT 10SM CLR 08/01 A3023 RMK AO2 SLP236 T00780011 401780039
KCEC 110656Z AUTO 09007KT 10SM CLR 10/01 A3023 RMK AO2 SLP236 T01000011
KCEC 110556Z AUTO 09008KT 10SM CLR 10/02 A3022 RMK AO2 SLP235 T01000017 10144 20072 51012
KCEC 110456Z AUTO 10007KT 10SM CLR 10/02 A3021 RMK AO2 SLP232 T01000022